createdAt,value
2018-09-27T00:06:55.178Z,5.60
2018-09-27T00:16:58.678Z,5.87
2018-09-27T00:27:06.358Z,6.90
2018-09-27T00:37:10.674Z,6.70
2018-09-27T00:47:14.219Z,5.43
2018-09-27T00:57:17.847Z,6.47
2018-09-27T01:07:21.368Z,5.90
2018-09-27T01:17:24.907Z,5.63
2018-09-27T01:27:28.457Z,5.70
2018-09-27T01:37:32.546Z,5.83
2018-09-27T01:47:37.752Z,5.03
2018-09-27T01:57:41.327Z,5.67
2018-09-27T02:07:44.878Z,6.23
2018-09-27T02:17:48.498Z,5.50
2018-09-27T02:27:52.338Z,6.47
2018-09-27T02:37:56.421Z,5.83
2018-09-27T02:48:01.227Z,5.53
2018-09-27T02:58:04.757Z,5.80
2018-09-27T03:08:08.970Z,6.17
2018-09-27T03:18:12.516Z,6.17
2018-09-27T03:28:16.776Z,5.77
2018-09-27T03:38:20.313Z,6.00
2018-09-27T03:48:24.142Z,6.00
2018-09-27T03:58:27.703Z,5.97
2018-09-27T04:08:31.349Z,5.77
2018-09-27T04:18:39.404Z,6.27
2018-09-27T04:28:42.984Z,5.70
2018-09-27T04:38:46.468Z,6.87
2018-09-27T04:48:56.728Z,6.77
2018-09-27T04:59:00.849Z,7.00
2018-09-27T05:09:05.865Z,7.50
2018-09-27T05:19:09.485Z,6.30
2018-09-27T05:29:13.133Z,6.17
2018-09-27T05:39:16.702Z,6.53
2018-09-27T05:49:20.364Z,5.93
2018-09-27T05:59:24.916Z,6.70
2018-09-27T06:09:28.484Z,5.97
2018-09-27T06:19:35.788Z,5.73
2018-09-27T06:29:39.281Z,6.47
2018-09-27T06:39:42.924Z,5.97
2018-09-27T06:49:53.865Z,6.03
2018-09-27T06:59:57.442Z,6.03
2018-09-27T07:10:05.739Z,6.40
2018-09-27T07:20:09.350Z,5.97
2018-09-27T07:30:12.834Z,6.03
2018-09-27T07:40:16.521Z,6.57
2018-09-27T07:50:20.129Z,6.97
2018-09-27T08:00:23.711Z,6.90
2018-09-27T08:10:27.270Z,6.87
2018-09-27T08:20:32.465Z,7.83
2018-09-27T08:30:36.066Z,10.63
2018-09-27T08:50:48.713Z,8.60
2018-09-27T09:00:52.842Z,8.50
2018-09-27T09:10:56.415Z,9.67
2018-09-27T09:21:00.025Z,10.33
2018-09-27T09:31:04.628Z,9.40
2018-09-27T09:41:08.282Z,9.53
2018-09-27T09:51:11.873Z,11.73
2018-09-27T10:01:15.677Z,11.03
2018-09-27T10:11:19.952Z,11.03
2018-09-27T10:21:23.521Z,12.70
2018-09-27T10:31:27.168Z,11.57
2018-09-27T10:41:30.735Z,12.27
2018-09-27T10:51:37.563Z,12.13
2018-09-27T11:01:41.196Z,13.07
2018-09-27T11:11:44.804Z,13.00
2018-09-27T11:32:45.680Z,11.00
2018-09-27T11:42:49.226Z,8.53
2018-09-27T12:03:54.236Z,7.33
2018-09-27T12:13:57.820Z,8.20
2018-09-27T12:24:01.424Z,7.63
2018-09-27T12:34:10.893Z,7.53
2018-09-27T12:44:14.402Z,7.93
2018-09-27T12:54:28.487Z,8.43
2018-09-27T13:04:32.026Z,7.17
2018-09-27T13:14:35.829Z,6.53
2018-09-27T13:24:39.377Z,5.70
2018-09-27T13:34:43.940Z,4.78
2018-09-27T13:44:47.556Z,5.87
2018-09-27T13:54:51.196Z,5.53
2018-09-27T14:04:54.717Z,4.93
2018-09-27T14:14:58.975Z,4.43
2018-09-27T14:25:02.672Z,3.00
2018-09-27T14:35:29.885Z,4.60
2018-09-27T14:45:34.417Z,4.70
2018-09-27T14:55:41.761Z,4.80
2018-09-27T15:05:45.308Z,5.43
2018-09-27T15:26:50.525Z,4.80
2018-09-27T15:36:54.098Z,4.60
2018-09-27T15:46:57.654Z,4.07
2018-09-27T15:57:01.324Z,3.97
2018-09-27T16:07:06.558Z,3.20
2018-09-27T16:17:10.418Z,3.30
2018-09-27T16:27:14.865Z,3.62
2018-09-27T16:37:19.464Z,3.60
2018-09-27T16:47:23.724Z,3.50
2018-09-27T16:57:27.513Z,2.90
2018-09-27T17:07:31.125Z,3.10
2018-09-27T17:17:38.824Z,4.27
2018-09-27T17:27:42.366Z,4.73
2018-09-27T17:37:46.001Z,3.60
2018-09-27T17:47:50.153Z,3.93
2018-09-27T17:57:53.794Z,4.33
2018-09-27T18:07:57.415Z,3.50
2018-09-27T18:18:01.080Z,4.23
2018-09-27T18:28:04.782Z,4.57
2018-09-27T18:38:08.546Z,4.53
2018-09-27T18:48:12.067Z,5.27
2018-09-27T18:58:15.828Z,5.90
2018-09-27T19:08:20.353Z,6.00
2018-09-27T19:18:33.042Z,5.90
2018-09-27T19:28:37.447Z,6.17
2018-09-27T19:38:42.391Z,7.37
2018-09-27T19:48:47.927Z,7.30
2018-09-27T19:58:51.506Z,6.83
2018-09-27T20:08:56.927Z,7.40
2018-09-27T20:19:00.545Z,7.77
2018-09-27T20:29:04.554Z,11.27
2018-09-27T20:39:08.550Z,9.37
2018-09-27T20:49:12.120Z,9.60
2018-09-27T20:59:15.733Z,11.00
2018-09-27T21:09:19.323Z,11.95
2018-09-27T21:19:22.950Z,12.47
2018-09-27T21:29:26.478Z,12.23
2018-09-27T21:39:30.239Z,12.67
2018-09-27T21:49:33.885Z,13.07
2018-09-27T21:59:39.238Z,14.03
2018-09-27T22:09:43.269Z,13.87
2018-09-27T22:19:46.894Z,13.80
2018-09-27T22:29:50.730Z,14.50
2018-09-27T22:39:54.357Z,13.30
2018-09-27T22:49:57.954Z,14.50
2018-09-27T23:00:02.176Z,13.90
2018-09-27T23:10:06.535Z,14.10
2018-09-27T23:20:11.337Z,14.40
2018-09-27T23:30:19.724Z,13.20
2018-09-27T23:40:23.315Z,13.67
2018-09-27T23:50:26.844Z,12.30
